Temp: 6.9°C   Baro: 1023.5mb
  Wind: 0.0mph   Dir: NE (50°)
  Rain: 0.0mm (0.0mm/hr)
  Solar: 0W/m2  Hum: 85%
 
Bath Spa Weather Historical Data
Daily Summary for April 17, 2019 Units:  Metric    English   Both
Next Day »
Daily Weekly Monthly Yearly Custom
  High: Low: Average:
Temperature: 18.0 °C 3.8 °C 11.7 °C
Dew Point: 11.1 °C 2.5 °C 7.6 °C
Humidity: 92% 61% 77%
Wind Speed: 19.3km/h 0.0km/h 2.7km/h
Wind Gust: 22.5km/h - -
Wind direction- - SE
Pressure: 1020.2 hPa 1017.5 hPa -
Precipitation: 0.0 mm    
Historical Graphs
 
 
Tabular Data for April 17, 2019
Time Temperature Dew Point Pressure Wind direction Wind Speed Wind Gust Humidity Rainfall Rate (Hourly) solar
00:04 10.2 °C 7.6 °C 1018.2 hPa Calm     84% 0.0 mm 0.00 W/m2
00:09 10.2 °C 7.6 °C 1018.2 hPa Calm     84% 0.0 mm 0.00 W/m2
00:14 10.2 °C 7.6 °C 1018.2 hPa Calm     84% 0.0 mm 0.00 W/m2
00:19 10.2 °C 7.6 °C 1018.2 hPa Calm     84% 0.0 mm 0.00 W/m2
00:24 10.1 °C 7.5 °C 1018.2 hPa WNW 1.4 km/h 1.6 km/h 84% 0.0 mm 0.00 W/m2
00:29 10.0 °C 7.4 °C 1018.2 hPa Calm     84% 0.0 mm 0.00 W/m2
00:34 9.9 °C 7.3 °C 1018.2 hPa Calm   1.6 km/h 84% 0.0 mm 0.00 W/m2
00:39 9.8 °C 7.2 °C 1018.2 hPa Calm   1.6 km/h 84% 0.0 mm 0.00 W/m2
00:44 9.7 °C 7.1 °C 1018.2 hPa Calm     84% 0.0 mm 0.00 W/m2
00:49 9.7 °C 7.3 °C 1018.2 hPa Calm     85% 0.0 mm 0.00 W/m2
00:54 9.6 °C 7.2 °C 1018.2 hPa Calm     85% 0.0 mm 0.00 W/m2
00:59 9.5 °C 7.1 °C 1018.2 hPa Calm     85% 0.0 mm 0.00 W/m2
01:04 9.4 °C 7.0 °C 1018.2 hPa Calm     85% 0.0 mm 0.00 W/m2
01:09 9.3 °C 7.1 °C 1018.2 hPa Calm     86% 0.0 mm 0.00 W/m2
01:14 9.2 °C 7.0 °C 1018.2 hPa Calm     86% 0.0 mm 0.00 W/m2
01:19 9.1 °C 6.9 °C 1018.5 hPa Calm     86% 0.0 mm 0.00 W/m2
01:24 8.8 °C 6.6 °C 1018.2 hPa Calm     86% 0.0 mm 0.00 W/m2
01:29 8.7 °C 6.5 °C 1018.2 hPa Calm   1.6 km/h 86% 0.0 mm 0.00 W/m2
01:34 8.5 °C 6.3 °C 1018.2 hPa Calm     86% 0.0 mm 0.00 W/m2
01:39 8.4 °C 6.4 °C 1018.2 hPa WNW 1.6 km/h 1.6 km/h 87% 0.0 mm 0.00 W/m2
01:44 8.3 °C 6.3 °C 1018.5 hPa Calm     87% 0.0 mm 0.00 W/m2
01:49 8.2 °C 6.2 °C 1018.2 hPa Calm     87% 0.0 mm 0.00 W/m2
01:54 7.9 °C 5.9 °C 1018.2 hPa Calm     87% 0.0 mm 0.00 W/m2
01:59 7.7 °C 5.7 °C 1018.2 hPa WNW 1.4 km/h 4.8 km/h 87% 0.0 mm 0.00 W/m2
02:04 7.7 °C 5.8 °C 1018.5 hPa Calm   1.6 km/h 88% 0.0 mm 0.00 W/m2
02:09 7.5 °C 5.6 °C 1018.5 hPa Calm     88% 0.0 mm 0.00 W/m2
02:14 7.4 °C 5.5 °C 1018.5 hPa Calm     88% 0.0 mm 0.00 W/m2
02:19 7.4 °C 5.5 °C 1018.5 hPa WNW 1.6 km/h 1.6 km/h 88% 0.0 mm 0.00 W/m2
02:24 7.4 °C 5.5 °C 1018.5 hPa Calm     88% 0.0 mm 0.00 W/m2
02:29 7.3 °C 5.4 °C 1018.5 hPa Calm     88% 0.0 mm 0.00 W/m2
02:34 7.2 °C 5.3 °C 1018.5 hPa Calm     88% 0.0 mm 0.00 W/m2
02:39 7.2 °C 5.3 °C 1018.5 hPa Calm     88% 0.0 mm 0.00 W/m2
02:44 7.0 °C 5.3 °C 1018.5 hPa Calm     89% 0.0 mm 0.00 W/m2
02:49 6.8 °C 5.0 °C 1018.5 hPa Calm     88% 0.0 mm 0.00 W/m2
02:54 6.7 °C 5.0 °C 1018.2 hPa Calm     89% 0.0 mm 0.00 W/m2
02:59 6.5 °C 4.8 °C 1018.5 hPa Calm     89% 0.0 mm 0.00 W/m2
03:04 6.5 °C 4.8 °C 1018.5 hPa Calm     89% 0.0 mm 0.00 W/m2
03:09 6.5 °C 4.8 °C 1018.5 hPa Calm     89% 0.0 mm 0.00 W/m2
03:14 6.4 °C 4.7 °C 1018.2 hPa Calm     89% 0.0 mm 0.00 W/m2
03:19 6.4 °C 4.7 °C 1018.2 hPa Calm     89% 0.0 mm 0.00 W/m2
03:24 6.3 °C 4.6 °C 1018.2 hPa Calm     89% 0.0 mm 0.00 W/m2
03:29 6.2 °C 4.5 °C 1018.2 hPa Calm     89% 0.0 mm 0.00 W/m2
03:34 6.2 °C 4.5 °C 1018.2 hPa Calm     89% 0.0 mm 0.00 W/m2
03:39 6.0 °C 4.3 °C 1018.2 hPa Calm     89% 0.0 mm 0.00 W/m2
03:44 5.9 °C 4.2 °C 1018.2 hPa Calm     89% 0.0 mm 0.00 W/m2
03:49 5.8 °C 4.1 °C 1018.2 hPa Calm     89% 0.0 mm 0.00 W/m2
03:54 5.7 °C 4.0 °C 1018.2 hPa Calm   1.6 km/h 89% 0.0 mm 0.00 W/m2
03:59 5.5 °C 4.0 °C 1018.2 hPa Calm     90% 0.0 mm 0.00 W/m2
04:04 5.5 °C 4.0 °C 1018.2 hPa Calm     90% 0.0 mm 0.00 W/m2
04:09 5.4 °C 3.9 °C 1018.2 hPa Calm     90% 0.0 mm 0.00 W/m2
04:14 5.3 °C 3.8 °C 1018.2 hPa Calm     90% 0.0 mm 0.00 W/m2
04:19 5.3 °C 3.8 °C 1018.2 hPa Calm     90% 0.0 mm 0.00 W/m2
04:24 5.2 °C 3.7 °C 1018.2 hPa Calm     90% 0.0 mm 0.00 W/m2
04:29 5.2 °C 3.7 °C 1018.2 hPa Calm     90% 0.0 mm 0.00 W/m2
04:34 5.2 °C 3.7 °C 1018.2 hPa Calm     90% 0.0 mm 0.00 W/m2
04:39 5.1 °C 3.6 °C 1018.2 hPa Calm     90% 0.0 mm 0.00 W/m2
04:44 5.0 °C 3.5 °C 1018.2 hPa Calm     90% 0.0 mm 0.00 W/m2
04:49 4.9 °C 3.4 °C 1018.2 hPa Calm     90% 0.0 mm 0.00 W/m2
04:54 4.8 °C 3.3 °C 1018.2 hPa Calm     90% 0.0 mm 0.00 W/m2
04:59 4.8 °C 3.5 °C 1018.5 hPa Calm     91% 0.0 mm 0.00 W/m2
05:04 4.7 °C 3.4 °C 1018.2 hPa Calm     91% 0.0 mm 0.00 W/m2
05:09 4.6 °C 3.3 °C 1018.2 hPa Calm     91% 0.0 mm 0.00 W/m2
05:14 4.6 °C 3.3 °C 1018.2 hPa Calm     91% 0.0 mm 0.00 W/m2
05:19 4.6 °C 3.3 °C 1018.5 hPa Calm     91% 0.0 mm 0.00 W/m2
05:24 4.6 °C 3.3 °C 1018.5 hPa Calm     91% 0.0 mm 0.00 W/m2
05:29 4.6 °C 3.3 °C 1018.5 hPa Calm     91% 0.0 mm 0.00 W/m2
05:34 4.5 °C 3.2 °C 1018.5 hPa Calm     91% 0.0 mm 0.00 W/m2
05:39 4.5 °C 3.2 °C 1018.5 hPa Calm     91% 0.0 mm 0.00 W/m2
05:44 4.4 °C 3.1 °C 1018.5 hPa Calm     91% 0.0 mm 0.00 W/m2
05:49 4.3 °C 3.0 °C 1018.5 hPa Calm     91% 0.0 mm 0.00 W/m2
05:54 4.3 °C 3.0 °C 1018.5 hPa Calm     91% 0.0 mm 0.00 W/m2
05:59 4.3 °C 3.0 °C 1018.5 hPa Calm     91% 0.0 mm 0.00 W/m2
06:04 4.2 °C 2.9 °C 1018.5 hPa Calm     91% 0.0 mm 0.00 W/m2
06:09 4.2 °C 2.9 °C 1018.5 hPa Calm     91% 0.0 mm 5.00 W/m2
06:14 4.2 °C 2.9 °C 1018.5 hPa Calm     91% 0.0 mm 7.00 W/m2
06:19 4.2 °C 2.9 °C 1018.5 hPa Calm     91% 0.0 mm 9.00 W/m2
06:24 4.2 °C 2.9 °C 1018.5 hPa Calm     91% 0.0 mm 12.00 W/m2
06:29 4.0 °C 2.7 °C 1018.8 hPa Calm     91% 0.0 mm 16.00 W/m2
06:34 3.9 °C 2.6 °C 1018.8 hPa Calm     91% 0.0 mm 19.00 W/m2
06:39 3.8 °C 2.5 °C 1018.8 hPa Calm     91% 0.0 mm 26.00 W/m2
06:44 3.8 °C 2.5 °C 1018.8 hPa Calm     91% 0.0 mm 30.00 W/m2
06:49 3.8 °C 2.5 °C 1018.8 hPa Calm     91% 0.0 mm 35.00 W/m2
06:54 3.8 °C 2.6 °C 1018.8 hPa Calm     92% 0.0 mm 40.00 W/m2
06:59 3.8 °C 2.6 °C 1018.8 hPa Calm     92% 0.0 mm 42.00 W/m2
07:04 3.9 °C 2.7 °C 1018.8 hPa Calm   1.6 km/h 92% 0.0 mm 51.00 W/m2
07:09 3.8 °C 2.6 °C 1018.8 hPa Calm     92% 0.0 mm 58.00 W/m2
07:14 3.8 °C 2.6 °C 1018.8 hPa WNW 1.6 km/h 1.6 km/h 92% 0.0 mm 76.00 W/m2
07:19 3.8 °C 2.6 °C 1018.8 hPa Calm     92% 0.0 mm 91.00 W/m2
07:24 3.9 °C 2.7 °C 1018.8 hPa Calm     92% 0.0 mm 102.00 W/m2
07:29 3.9 °C 2.7 °C 1018.8 hPa Calm     92% 0.0 mm 116.00 W/m2
07:34 4.0 °C 2.8 °C 1019.2 hPa Calm     92% 0.0 mm 121.00 W/m2
07:39 4.2 °C 3.0 °C 1019.2 hPa Calm     92% 0.0 mm 113.00 W/m2
07:44 4.4 °C 3.2 °C 1019.2 hPa Calm     92% 0.0 mm 113.00 W/m2
07:49 4.6 °C 3.4 °C 1019.2 hPa Calm     92% 0.0 mm 128.00 W/m2
07:54 4.9 °C 3.7 °C 1019.2 hPa Calm     92% 0.0 mm 137.00 W/m2
07:59 5.2 °C 4.0 °C 1019.2 hPa Calm     92% 0.0 mm 123.00 W/m2
08:04 5.4 °C 4.2 °C 1019.2 hPa Calm     92% 0.0 mm 127.00 W/m2
08:09 5.8 °C 4.6 °C 1019.2 hPa Calm     92% 0.0 mm 118.00 W/m2
08:14 6.1 °C 4.9 °C 1019.2 hPa Calm   1.6 km/h 92% 0.0 mm 137.00 W/m2
08:19 6.5 °C 5.3 °C 1019.2 hPa Calm   3.2 km/h 92% 0.0 mm 162.00 W/m2
08:24 6.9 °C 5.7 °C 1019.2 hPa WNW 3.2 km/h 6.4 km/h 92% 0.0 mm 185.00 W/m2
08:29 6.9 °C 5.7 °C 1019.2 hPa WNW 3.2 km/h 6.4 km/h 92% 0.0 mm 220.00 W/m2
08:34 7.1 °C 5.9 °C 1019.2 hPa WNW 4.7 km/h 6.4 km/h 92% 0.0 mm 216.00 W/m2
08:39 7.2 °C 6.0 °C 1019.2 hPa WNW 3.2 km/h 8.0 km/h 92% 0.0 mm 241.00 W/m2
08:44 7.5 °C 6.3 °C 1019.2 hPa WNW 4.7 km/h 4.8 km/h 92% 0.0 mm 234.00 W/m2
08:49 7.6 °C 6.4 °C 1019.2 hPa WNW 3.2 km/h 6.4 km/h 92% 0.0 mm 234.00 W/m2
08:54 7.7 °C 6.3 °C 1019.2 hPa WNW 3.2 km/h 6.4 km/h 91% 0.0 mm 258.00 W/m2
08:59 8.0 °C 6.6 °C 1019.5 hPa West 3.2 km/h 8.0 km/h 91% 0.0 mm 274.00 W/m2
09:04 8.4 °C 6.9 °C 1019.5 hPa WSW 3.2 km/h 4.8 km/h 90% 0.0 mm 262.00 W/m2
09:09 8.8 °C 7.2 °C 1019.5 hPa WSW 6.4 km/h 6.4 km/h 90% 0.0 mm 295.00 W/m2
09:14 9.2 °C 7.5 °C 1019.5 hPa WSW 3.2 km/h 6.4 km/h 89% 0.0 mm 318.00 W/m2
09:19 9.4 °C 7.5 °C 1019.5 hPa Calm   9.7 km/h 88% 0.0 mm 327.00 W/m2
09:24 9.9 °C 7.8 °C 1019.5 hPa SSW 1.4 km/h 8.0 km/h 87% 0.0 mm 332.00 W/m2
09:29 10.4 °C 8.0 °C 1019.5 hPa SSW 1.4 km/h 8.0 km/h 85% 0.0 mm 327.00 W/m2
09:34 10.6 °C 8.0 °C 1019.5 hPa SSW 1.4 km/h 6.4 km/h 84% 0.0 mm 308.00 W/m2
09:39 10.9 °C 8.1 °C 1019.5 hPa SSW 4.7 km/h 4.8 km/h 83% 0.0 mm 366.00 W/m2
09:44 10.8 °C 7.9 °C 1019.5 hPa SSW 3.2 km/h 6.4 km/h 82% 0.0 mm 392.00 W/m2
09:49 10.8 °C 7.9 °C 1019.5 hPa SSW 3.2 km/h 6.4 km/h 82% 0.0 mm 387.00 W/m2
09:54 11.2 °C 8.2 °C 1019.5 hPa SSW 7.9 km/h 8.0 km/h 82% 0.0 mm 422.00 W/m2
09:59 10.7 °C 7.6 °C 1019.5 hPa Calm   4.8 km/h 81% 0.0 mm 417.00 W/m2
10:04 11.0 °C 7.9 °C 1019.5 hPa SSW 3.2 km/h 8.0 km/h 81% 0.0 mm 411.00 W/m2
10:09 11.2 °C 8.1 °C 1019.5 hPa SSW 1.4 km/h 4.8 km/h 81% 0.0 mm 480.00 W/m2
10:14 11.4 °C 8.3 °C 1019.5 hPa SSW 8.0 km/h 8.0 km/h 81% 0.0 mm 482.00 W/m2
10:19 11.4 °C 8.3 °C 1019.5 hPa Calm   9.7 km/h 81% 0.0 mm 489.00 W/m2
10:24 12.3 °C 8.8 °C 1019.5 hPa SSW 3.2 km/h 6.4 km/h 79% 0.0 mm 497.00 W/m2
10:29 12.5 °C 8.6 °C 1019.5 hPa Calm   4.8 km/h 77% 0.0 mm 513.00 W/m2
10:34 12.3 °C 8.2 °C 1019.5 hPa SSW 3.2 km/h 4.8 km/h 76% 0.0 mm 534.00 W/m2
10:39 12.5 °C 9.0 °C 1019.5 hPa SSW 1.4 km/h 6.4 km/h 79% 0.0 mm 520.00 W/m2
10:44 13.0 °C 8.9 °C 1019.5 hPa South 1.4 km/h 8.0 km/h 76% 0.0 mm 510.00 W/m2
10:49 13.5 °C 9.2 °C 1019.5 hPa SSE 3.2 km/h 8.0 km/h 75% 0.0 mm 431.00 W/m2
10:54 13.3 °C 8.8 °C 1019.5 hPa ESE 7.9 km/h 9.7 km/h 74% 0.0 mm 476.00 W/m2
10:59 13.4 °C 9.1 °C 1019.5 hPa ESE 4.7 km/h 12.9 km/h 75% 0.0 mm 489.00 W/m2
11:04 13.5 °C 9.0 °C 1019.5 hPa ESE 1.4 km/h 9.7 km/h 74% 0.0 mm 531.00 W/m2
11:09 13.4 °C 8.9 °C 1019.5 hPa ESE 7.9 km/h 11.3 km/h 74% 0.0 mm 483.00 W/m2
11:14 13.8 °C 9.2 °C 1019.5 hPa Calm   8.0 km/h 74% 0.0 mm 392.00 W/m2
11:19 14.0 °C 9.0 °C 1019.5 hPa SE 3.2 km/h 11.3 km/h 72% 0.0 mm 554.00 W/m2
11:24 14.2 °C 9.0 °C 1019.5 hPa ESE 16.1 km/h 16.1 km/h 71% 0.0 mm 571.00 W/m2
11:29 14.3 °C 9.1 °C 1019.5 hPa SE 1.4 km/h 4.8 km/h 71% 0.0 mm 605.00 W/m2
11:34 14.7 °C 9.3 °C 1019.5 hPa ESE 3.2 km/h 9.7 km/h 70% 0.0 mm 508.00 W/m2
11:39 14.8 °C 9.4 °C 1019.5 hPa ESE 3.2 km/h 9.7 km/h 70% 0.0 mm 557.00 W/m2
11:44 14.6 °C 9.2 °C 1019.5 hPa ESE 4.7 km/h 16.1 km/h 70% 0.0 mm 577.00 W/m2
11:49 13.9 °C 8.7 °C 1019.5 hPa SE 6.4 km/h 9.7 km/h 71% 0.0 mm 541.00 W/m2
11:54 14.3 °C 9.3 °C 1019.5 hPa East 4.7 km/h 11.3 km/h 72% 0.0 mm 519.00 W/m2
11:59 14.6 °C 9.2 °C 1019.2 hPa ESE 4.7 km/h 6.4 km/h 70% 0.0 mm 494.00 W/m2
12:04 14.8 °C 9.2 °C 1019.2 hPa ESE 12.9 km/h 12.9 km/h 69% 0.0 mm 489.00 W/m2
12:09 14.2 °C 8.6 °C 1019.2 hPa SE 7.9 km/h 12.9 km/h 69% 0.0 mm 501.00 W/m2
12:14 14.1 °C 8.7 °C 1019.2 hPa SE 3.2 km/h 6.4 km/h 70% 0.0 mm 513.00 W/m2
12:19 15.0 °C 9.1 °C 1019.2 hPa SE 11.3 km/h 11.3 km/h 68% 0.0 mm 568.00 W/m2
12:24 15.4 °C 9.3 °C 1019.2 hPa Calm   12.9 km/h 67% 0.0 mm 582.00 W/m2
12:29 15.2 °C 8.9 °C 1019.2 hPa Calm   8.0 km/h 66% 0.0 mm 545.00 W/m2
12:34 15.7 °C 9.6 °C 1019.2 hPa NE 1.4 km/h 8.0 km/h 67% 0.0 mm 577.00 W/m2
12:39 15.6 °C 9.5 °C 1019.2 hPa Calm   8.0 km/h 67% 0.0 mm 490.00 W/m2
12:44 16.1 °C 9.7 °C 1019.2 hPa NE 3.2 km/h 3.2 km/h 66% 0.0 mm 454.00 W/m2
12:49 15.9 °C 9.3 °C 1019.2 hPa ENE 4.7 km/h 16.1 km/h 65% 0.0 mm 489.00 W/m2
12:54 15.9 °C 9.3 °C 1019.2 hPa ESE 4.7 km/h 9.7 km/h 65% 0.0 mm 526.00 W/m2
12:59 15.5 °C 9.4 °C 1019.2 hPa SE 3.2 km/h 6.4 km/h 67% 0.0 mm 582.00 W/m2
13:04 15.4 °C 9.1 °C 1019.2 hPa SSE 11.3 km/h 11.3 km/h 66% 0.0 mm 596.00 W/m2
13:09 15.6 °C 9.3 °C 1019.2 hPa SE 11.1 km/h 12.9 km/h 66% 0.0 mm 559.00 W/m2
13:14 16.0 °C 9.4 °C 1018.8 hPa ESE 4.7 km/h 12.9 km/h 65% 0.0 mm 520.00 W/m2
13:19 16.1 °C 9.5 °C 1018.8 hPa ESE 1.4 km/h 4.8 km/h 65% 0.0 mm 455.00 W/m2
13:24 16.3 °C 9.9 °C 1018.8 hPa ESE 4.7 km/h 14.5 km/h 66% 0.0 mm 429.00 W/m2
13:29 16.3 °C 10.2 °C 1018.8 hPa East 7.9 km/h 11.3 km/h 67% 0.0 mm 404.00 W/m2
13:34 15.9 °C 9.8 °C 1018.8 hPa ENE 7.9 km/h 11.3 km/h 67% 0.0 mm 404.00 W/m2
13:39 15.8 °C 9.9 °C 1018.8 hPa ESE 12.9 km/h 12.9 km/h 68% 0.0 mm 413.00 W/m2
13:44 15.9 °C 10.0 °C 1018.8 hPa East 4.7 km/h 11.3 km/h 68% 0.0 mm 462.00 W/m2
13:49 16.3 °C 10.4 °C 1018.8 hPa Calm   8.0 km/h 68% 0.0 mm 503.00 W/m2
13:54 16.5 °C 10.6 °C 1018.8 hPa Calm   11.3 km/h 68% 0.0 mm 508.00 W/m2
13:59 16.3 °C 10.2 °C 1018.8 hPa East 4.7 km/h 12.9 km/h 67% 0.0 mm 462.00 W/m2
14:04 16.2 °C 10.3 °C 1018.8 hPa SSE 4.7 km/h 9.7 km/h 68% 0.0 mm 512.00 W/m2
14:09 16.4 °C 10.5 °C 1018.8 hPa East 4.7 km/h 12.9 km/h 68% 0.0 mm 531.00 W/m2
14:14 16.5 °C 10.4 °C 1018.8 hPa SE 1.4 km/h 9.7 km/h 67% 0.0 mm 510.00 W/m2
14:19 16.3 °C 10.4 °C 1018.8 hPa NE 4.7 km/h 14.5 km/h 68% 0.0 mm 499.00 W/m2
14:24 16.5 °C 10.1 °C 1018.8 hPa Calm   11.3 km/h 66% 0.0 mm 448.00 W/m2
14:29 16.2 °C 10.1 °C 1018.8 hPa East 4.7 km/h 11.3 km/h 67% 0.0 mm 434.00 W/m2
14:34 16.4 °C 10.3 °C 1018.8 hPa ESE 7.9 km/h 12.9 km/h 67% 0.0 mm 443.00 W/m2
14:39 16.3 °C 10.6 °C 1018.8 hPa Calm   9.7 km/h 69% 0.0 mm 536.00 W/m2
14:44 16.5 °C 10.6 °C 1018.8 hPa ESE 1.4 km/h 9.7 km/h 68% 0.0 mm 554.00 W/m2
14:49 16.4 °C 10.3 °C 1018.8 hPa East 3.2 km/h 14.5 km/h 67% 0.0 mm 592.00 W/m2
14:54 17.2 °C 10.6 °C 1018.8 hPa East 6.4 km/h 9.7 km/h 65% 0.0 mm 728.00 W/m2
14:59 17.5 °C 10.6 °C 1018.8 hPa NNE 6.4 km/h 6.4 km/h 64% 0.0 mm 751.00 W/m2
15:04 17.5 °C 10.6 °C 1018.8 hPa ENE 7.9 km/h 14.5 km/h 64% 0.0 mm 693.00 W/m2
15:09 17.5 °C 10.6 °C 1018.5 hPa SE 3.2 km/h 8.0 km/h 64% 0.0 mm 619.00 W/m2
15:14 17.7 °C 10.8 °C 1018.5 hPa SE 6.4 km/h 11.3 km/h 64% 0.0 mm 647.00 W/m2
15:19 17.3 °C 10.7 °C 1018.5 hPa ESE 7.9 km/h 14.5 km/h 65% 0.0 mm 675.00 W/m2
15:24 17.5 °C 10.6 °C 1018.5 hPa ENE 13.0 km/h 14.5 km/h 64% 0.0 mm 671.00 W/m2
15:29 17.8 °C 10.9 °C 1018.5 hPa NE 1.4 km/h 9.7 km/h 64% 0.0 mm 729.00 W/m2
15:34 17.7 °C 10.6 °C 1018.2 hPa ESE 1.4 km/h 9.7 km/h 63% 0.0 mm 663.00 W/m2
15:39 17.1 °C 10.5 °C 1018.2 hPa SE 1.4 km/h 11.3 km/h 65% 0.0 mm 599.00 W/m2
15:44 17.7 °C 11.0 °C 1018.2 hPa ESE 11.1 km/h 12.9 km/h 65% 0.0 mm 513.00 W/m2
15:49 18.0 °C 11.1 °C 1018.2 hPa ESE 16.3 km/h 17.7 km/h 64% 0.0 mm 621.00 W/m2
15:54 18.0 °C 11.1 °C 1018.2 hPa NE 13.0 km/h 14.5 km/h 64% 0.0 mm 577.00 W/m2
15:59 17.9 °C 10.5 °C 1018.2 hPa East 1.4 km/h 17.7 km/h 62% 0.0 mm 311.00 W/m2
16:04 18.0 °C 10.6 °C 1018.2 hPa ENE 1.4 km/h 9.7 km/h 62% 0.0 mm 346.00 W/m2
16:09 17.7 °C 10.8 °C 1018.2 hPa East 6.4 km/h 11.3 km/h 64% 0.0 mm 332.00 W/m2
16:14 18.0 °C 10.6 °C 1018.2 hPa NE 6.4 km/h 14.5 km/h 62% 0.0 mm 504.00 W/m2
16:19 17.8 °C 10.4 °C 1018.2 hPa NE 19.3 km/h 19.3 km/h 62% 0.0 mm 455.00 W/m2
16:24 17.9 °C 10.5 °C 1017.8 hPa East 7.9 km/h 16.1 km/h 62% 0.0 mm 522.00 W/m2
16:29 17.9 °C 10.5 °C 1017.8 hPa ESE 9.7 km/h 17.7 km/h 62% 0.0 mm 404.00 W/m2
16:34 17.9 °C 10.3 °C 1017.8 hPa East 7.9 km/h 12.9 km/h 61% 0.0 mm 494.00 W/m2
16:39 17.9 °C 10.5 °C 1017.8 hPa NE 3.2 km/h 12.9 km/h 62% 0.0 mm 455.00 W/m2
16:44 18.0 °C 10.6 °C 1017.8 hPa NE 11.1 km/h 17.7 km/h 62% 0.0 mm 387.00 W/m2
16:49 17.9 °C 10.5 °C 1017.8 hPa SE 9.7 km/h 22.5 km/h 62% 0.0 mm 376.00 W/m2
16:54 17.9 °C 10.3 °C 1017.8 hPa East 7.9 km/h 12.9 km/h 61% 0.0 mm 413.00 W/m2
16:59 17.9 °C 10.3 °C 1017.8 hPa NE 13.0 km/h 17.7 km/h 61% 0.0 mm 413.00 W/m2
17:04 17.7 °C 10.6 °C 1017.8 hPa ESE 1.4 km/h 9.7 km/h 63% 0.0 mm 378.00 W/m2
17:09 17.9 °C 10.5 °C 1017.8 hPa East 11.1 km/h 14.5 km/h 62% 0.0 mm 285.00 W/m2
17:14 17.7 °C 10.3 °C 1017.8 hPa East 3.2 km/h 12.9 km/h 62% 0.0 mm 357.00 W/m2
17:19 17.7 °C 10.3 °C 1017.8 hPa ENE 3.2 km/h 17.7 km/h 62% 0.0 mm 301.00 W/m2
17:24 17.7 °C 10.3 °C 1017.8 hPa Calm   9.7 km/h 62% 0.0 mm 306.00 W/m2
17:29 17.7 °C 10.3 °C 1017.8 hPa ENE 7.9 km/h 12.9 km/h 62% 0.0 mm 308.00 W/m2
17:34 17.8 °C 10.4 °C 1017.8 hPa ESE 1.4 km/h 6.4 km/h 62% 0.0 mm 269.00 W/m2
17:39 17.8 °C 10.4 °C 1017.8 hPa ENE 3.2 km/h 16.1 km/h 62% 0.0 mm 141.00 W/m2
17:44 17.7 °C 10.6 °C 1017.8 hPa SSE 1.4 km/h 12.9 km/h 63% 0.0 mm 246.00 W/m2
17:49 17.4 °C 10.3 °C 1017.8 hPa ESE 6.4 km/h 16.1 km/h 63% 0.0 mm 251.00 W/m2
17:54 17.4 °C 10.5 °C 1017.8 hPa ENE 14.3 km/h 14.5 km/h 64% 0.0 mm 216.00 W/m2
17:59 17.5 °C 10.6 °C 1017.8 hPa East 3.2 km/h 8.0 km/h 64% 0.0 mm 216.00 W/m2
18:04 17.5 °C 10.6 °C 1017.8 hPa SE 1.4 km/h 16.1 km/h 64% 0.0 mm 178.00 W/m2
18:09 17.5 °C 10.4 °C 1017.8 hPa ESE 4.7 km/h 12.9 km/h 63% 0.0 mm 171.00 W/m2
18:14 17.5 °C 10.4 °C 1017.8 hPa ESE 3.2 km/h 11.3 km/h 63% 0.0 mm 176.00 W/m2
18:19 17.5 °C 10.6 °C 1017.5 hPa SSE 3.2 km/h 9.7 km/h 64% 0.0 mm 158.00 W/m2
18:24 17.4 °C 10.5 °C 1017.5 hPa ESE 1.4 km/h 9.7 km/h 64% 0.0 mm 142.00 W/m2
18:29 17.4 °C 10.5 °C 1017.5 hPa Calm   8.0 km/h 64% 0.0 mm 134.00 W/m2
18:34 17.4 °C 10.5 °C 1017.5 hPa East 1.4 km/h 4.8 km/h 64% 0.0 mm 111.00 W/m2
18:39 17.5 °C 10.6 °C 1017.8 hPa NE 3.2 km/h 9.7 km/h 64% 0.0 mm 95.00 W/m2
18:44 17.4 °C 10.5 °C 1017.8 hPa SE 6.4 km/h 11.3 km/h 64% 0.0 mm 70.00 W/m2
18:49 17.3 °C 10.4 °C 1017.8 hPa Calm   6.4 km/h 64% 0.0 mm 65.00 W/m2
18:54 17.2 °C 10.6 °C 1017.8 hPa East 1.4 km/h 9.7 km/h 65% 0.0 mm 60.00 W/m2
18:59 17.0 °C 10.4 °C 1017.8 hPa ESE 4.7 km/h 6.4 km/h 65% 0.0 mm 54.00 W/m2
19:04 16.9 °C 10.3 °C 1017.8 hPa Calm   6.4 km/h 65% 0.0 mm 51.00 W/m2
19:09 16.8 °C 10.2 °C 1017.8 hPa ESE 1.4 km/h 3.2 km/h 65% 0.0 mm 47.00 W/m2
19:14 16.8 °C 10.4 °C 1017.8 hPa Calm   1.6 km/h 66% 0.0 mm 44.00 W/m2
19:19 16.8 °C 10.4 °C 1017.8 hPa Calm   3.2 km/h 66% 0.0 mm 37.00 W/m2
19:24 16.7 °C 10.3 °C 1017.8 hPa Calm   1.6 km/h 66% 0.0 mm 33.00 W/m2
19:29 16.7 °C 10.5 °C 1018.2 hPa ESE 1.4 km/h 1.6 km/h 67% 0.0 mm 28.00 W/m2
19:34 16.6 °C 10.4 °C 1018.2 hPa ESE 4.7 km/h 4.8 km/h 67% 0.0 mm 23.00 W/m2
19:39 16.4 °C 10.3 °C 1018.2 hPa Calm   1.6 km/h 67% 0.0 mm 18.00 W/m2
19:44 16.3 °C 10.2 °C 1018.2 hPa Calm   1.6 km/h 67% 0.0 mm 14.00 W/m2
19:49 16.1 °C 10.2 °C 1018.2 hPa Calm   1.6 km/h 68% 0.0 mm 11.00 W/m2
19:54 16.0 °C 10.1 °C 1018.2 hPa Calm   3.2 km/h 68% 0.0 mm 7.00 W/m2
19:59 15.9 °C 10.2 °C 1018.2 hPa Calm   1.6 km/h 69% 0.0 mm 0.00 W/m2
20:04 15.7 °C 10.0 °C 1018.2 hPa Calm     69% 0.0 mm 0.00 W/m2
20:09 15.5 °C 10.1 °C 1018.2 hPa Calm   3.2 km/h 70% 0.0 mm 0.00 W/m2
20:14 15.4 °C 10.0 °C 1018.5 hPa Calm   1.6 km/h 70% 0.0 mm 0.00 W/m2
20:19 15.3 °C 9.9 °C 1018.5 hPa Calm   1.6 km/h 70% 0.0 mm 0.00 W/m2
20:24 15.0 °C 9.8 °C 1018.5 hPa Calm   6.4 km/h 71% 0.0 mm 0.00 W/m2
20:29 14.9 °C 9.7 °C 1018.5 hPa Calm   3.2 km/h 71% 0.0 mm 0.00 W/m2
20:34 14.8 °C 9.8 °C 1018.8 hPa ESE 1.4 km/h 3.2 km/h 72% 0.0 mm 0.00 W/m2
20:39 14.7 °C 9.7 °C 1018.8 hPa Calm   4.8 km/h 72% 0.0 mm 0.00 W/m2
20:44 14.7 °C 9.7 °C 1018.8 hPa ESE 1.4 km/h 3.2 km/h 72% 0.0 mm 0.00 W/m2
20:49 14.6 °C 9.6 °C 1018.8 hPa Calm   8.0 km/h 72% 0.0 mm 0.00 W/m2
20:54 14.5 °C 9.5 °C 1018.8 hPa Calm   4.8 km/h 72% 0.0 mm 0.00 W/m2
20:59 14.4 °C 9.4 °C 1018.8 hPa SE 4.7 km/h 12.9 km/h 72% 0.0 mm 0.00 W/m2
21:04 14.3 °C 9.3 °C 1019.2 hPa SSE 6.4 km/h 16.1 km/h 72% 0.0 mm 0.00 W/m2
21:09 14.2 °C 9.2 °C 1019.2 hPa SSE 7.9 km/h 8.0 km/h 72% 0.0 mm 0.00 W/m2
21:14 14.0 °C 9.0 °C 1019.2 hPa SSE 3.2 km/h 11.3 km/h 72% 0.0 mm 0.00 W/m2
21:19 13.9 °C 8.9 °C 1019.5 hPa SSE 4.7 km/h 8.0 km/h 72% 0.0 mm 0.00 W/m2
21:24 13.9 °C 8.9 °C 1019.5 hPa SE 7.9 km/h 12.9 km/h 72% 0.0 mm 0.00 W/m2
21:29 13.7 °C 8.7 °C 1019.5 hPa SSE 4.7 km/h 12.9 km/h 72% 0.0 mm 0.00 W/m2
21:34 13.5 °C 8.6 °C 1019.5 hPa SSE 16.1 km/h 16.1 km/h 72% 0.0 mm 0.00 W/m2
21:39 13.2 °C 8.3 °C 1019.5 hPa SSE 6.4 km/h 12.9 km/h 72% 0.0 mm 0.00 W/m2
21:44 13.0 °C 8.3 °C 1019.5 hPa South 16.3 km/h 16.1 km/h 73% 0.0 mm 0.00 W/m2
21:49 12.8 °C 8.1 °C 1019.5 hPa SSE 9.7 km/h 14.5 km/h 73% 0.0 mm 0.00 W/m2
21:54 12.7 °C 8.0 °C 1019.5 hPa SSE 1.4 km/h 12.9 km/h 73% 0.0 mm 0.00 W/m2
21:59 12.6 °C 7.9 °C 1019.5 hPa SE 3.2 km/h 4.8 km/h 73% 0.0 mm 0.00 W/m2
22:04 12.5 °C 8.0 °C 1019.5 hPa Calm   3.2 km/h 74% 0.0 mm 0.00 W/m2
22:09 12.4 °C 7.9 °C 1019.5 hPa SE 4.7 km/h 4.8 km/h 74% 0.0 mm 0.00 W/m2
22:14 12.4 °C 7.9 °C 1019.5 hPa East 4.7 km/h 8.0 km/h 74% 0.0 mm 0.00 W/m2
22:19 12.3 °C 7.8 °C 1019.5 hPa East 6.4 km/h 6.4 km/h 74% 0.0 mm 0.00 W/m2
22:24 12.3 °C 7.8 °C 1019.5 hPa East 6.4 km/h 6.4 km/h 74% 0.0 mm 0.00 W/m2
22:29 12.2 °C 7.7 °C 1019.5 hPa East 3.2 km/h 9.7 km/h 74% 0.0 mm 0.00 W/m2
22:34 12.2 °C 7.7 °C 1019.5 hPa ESE 3.2 km/h 8.0 km/h 74% 0.0 mm 0.00 W/m2
22:39 12.1 °C 7.8 °C 1019.9 hPa East 4.7 km/h 6.4 km/h 75% 0.0 mm 0.00 W/m2
22:44 12.0 °C 7.7 °C 1019.9 hPa ESE 1.4 km/h 9.7 km/h 75% 0.0 mm 0.00 W/m2
22:49 12.0 °C 7.7 °C 1019.9 hPa Calm   6.4 km/h 75% 0.0 mm 0.00 W/m2
22:54 12.0 °C 7.7 °C 1019.9 hPa SE 1.4 km/h 8.0 km/h 75% 0.0 mm 0.00 W/m2
22:59 11.9 °C 7.6 °C 1019.9 hPa SE 3.2 km/h 4.8 km/h 75% 0.0 mm 0.00 W/m2
23:04 11.8 °C 7.5 °C 1019.9 hPa SE 1.4 km/h 8.0 km/h 75% 0.0 mm 0.00 W/m2
23:09 11.8 °C 7.5 °C 1019.9 hPa Calm   9.7 km/h 75% 0.0 mm 0.00 W/m2
23:14 11.8 °C 7.5 °C 1019.9 hPa ESE 1.4 km/h 6.4 km/h 75% 0.0 mm 0.00 W/m2
23:19 11.7 °C 7.6 °C 1019.9 hPa ESE 1.4 km/h 4.8 km/h 76% 0.0 mm 0.00 W/m2
23:24 11.6 °C 7.5 °C 1019.9 hPa Calm   1.6 km/h 76% 0.0 mm 0.00 W/m2
23:29 11.5 °C 7.4 °C 1019.9 hPa East 9.7 km/h 9.7 km/h 76% 0.0 mm 0.00 W/m2
23:34 11.5 °C 7.4 °C 1019.9 hPa Calm   4.8 km/h 76% 0.0 mm 0.00 W/m2
23:39 11.4 °C 7.3 °C 1019.9 hPa ESE 7.9 km/h 11.3 km/h 76% 0.0 mm 0.00 W/m2
23:44 11.4 °C 7.3 °C 1019.9 hPa SE 1.4 km/h 6.4 km/h 76% 0.0 mm 0.00 W/m2
23:49 11.4 °C 7.3 °C 1019.9 hPa East 9.7 km/h 9.7 km/h 76% 0.0 mm 0.00 W/m2
23:54 11.4 °C 7.3 °C 1020.2 hPa ESE 3.2 km/h 9.7 km/h 76% 0.0 mm 0.00 W/m2
23:59 11.4 °C 7.5 °C 1020.2 hPa Calm   8.0 km/h 77% 0.0 mm 0.00 W/m2